Time;durP1;ratioP1;P1;durP2;ratioP2;P2;SDS_P1;SDS_P2;PMS_P1;PMS_P2;Temp;Humidity;BMP_temperature;BMP_pressure;BME280_temperature;BME280_humidity;BME280_pressure;Samples;Min_cycle;Max_cycle;Signal;HPM_P1;HPM_P2
2022/08/20 00:00:45;;;;;;;;;;;19.60;54.10;;;;;;5022995;28;19944;-82
2022/08/20 00:03:28;;;;;;;;;;;19.50;54.50;;;;;;5022482;28;19928;-82
2022/08/20 00:05:59;;;;;;;;;;;19.50;54.40;;;;;;5022880;28;19921;-82
2022/08/20 00:08:25;;;;;;;;;;;19.50;54.40;;;;;;5013154;28;19963;-82
2022/08/20 00:10:51;;;;;;;;;;;19.50;54.60;;;;;;5001772;28;19953;-83
2022/08/20 00:13:23;;;;;;;;;;;19.40;54.80;;;;;;5024266;28;19917;-82
2022/08/20 00:15:49;;;;;;;;;;;19.40;54.90;;;;;;5015050;28;19916;-82
2022/08/20 00:18:15;;;;;;;;;;;19.40;55.60;;;;;;5019865;28;19905;-82
2022/08/20 00:20:42;;;;;;;;;;;19.40;55.60;;;;;;5023659;28;20326;-82
2022/08/20 00:23:08;;;;;;;;;;;19.30;55.70;;;;;;5020258;28;19906;-83
2022/08/20 00:25:34;;;;;;;;;;;19.30;55.70;;;;;;4998982;28;20335;-83
2022/08/20 00:28:02;;;;;;;;;;;19.30;55.70;;;;;;5019808;28;20367;-82
2022/08/20 00:30:28;;;;;;;;;;;19.20;55.70;;;;;;5000045;28;19992;-83
2022/08/20 00:32:56;;;;;;;;;;;19.20;56.10;;;;;;5020912;28;19916;-83
2022/08/20 00:35:26;;;;;;;;;;;19.20;56.70;;;;;;5008094;28;19912;-82
2022/08/20 00:37:52;;;;;;;;;;;19.20;56.80;;;;;;4987074;28;19909;-83
2022/08/20 00:40:20;;;;;;;;;;;19.10;56.80;;;;;;5020147;28;20359;-83
2022/08/20 00:42:47;;;;;;;;;;;19.10;56.70;;;;;;5020743;28;19906;-83
2022/08/20 00:45:14;;;;;;;;;;;19.10;57.10;;;;;;5022428;28;19937;-83
2022/08/20 00:47:43;;;;;;;;;;;19.00;57.00;;;;;;5020746;28;19918;-83
2022/08/20 00:50:10;;;;;;;;;;;19.00;57.90;;;;;;5024577;28;19909;-84
2022/08/20 00:52:36;;;;;;;;;;;19.00;57.80;;;;;;5021347;28;19988;-83
2022/08/20 00:55:04;;;;;;;;;;;18.90;57.80;;;;;;5029634;28;19905;-82
2022/08/20 00:57:33;;;;;;;;;;;18.90;57.90;;;;;;5019074;28;20250;-82
2022/08/20 00:59:59;;;;;;;;;;;18.90;58.00;;;;;;5016547;28;20313;-82
2022/08/20 01:02:27;;;;;;;;;;;18.80;58.00;;;;;;5025017;28;19905;-83
2022/08/20 01:04:54;;;;;;;;;;;18.80;58.50;;;;;;5028096;28;20390;-82
2022/08/20 01:07:23;;;;;;;;;;;18.80;58.70;;;;;;5025969;28;20401;-83
2022/08/20 01:09:48;;;;;;;;;;;18.80;58.90;;;;;;5017298;28;19951;-82
2022/08/20 01:12:15;;;;;;;;;;;18.80;58.70;;;;;;5026033;28;19968;-81
2022/08/20 01:14:44;;;;;;;;;;;18.80;58.80;;;;;;5016717;28;19910;-85
2022/08/20 01:17:12;;;;;;;;;;;18.70;58.70;;;;;;5015495;28;20010;-83
2022/08/20 01:19:43;;;;;;;;;;;18.70;58.90;;;;;;5012381;28;19909;-83
2022/08/20 01:25:16;;;;;;;;;;;18.70;59.20;;;;;;4949661;29;19963;-83
2022/08/20 01:27:42;;;;;;;;;;;18.70;59.60;;;;;;4981944;28;20386;-84
2022/08/20 01:30:07;;;;;;;;;;;18.70;59.40;;;;;;4996554;28;19906;-83
2022/08/20 01:32:33;;;;;;;;;;;18.60;60.00;;;;;;5014697;28;19905;-84
2022/08/20 01:34:59;;;;;;;;;;;18.60;59.40;;;;;;5028858;28;19963;-83
2022/08/20 01:37:24;;;;;;;;;;;18.60;59.80;;;;;;4996810;28;19909;-83
2022/08/20 01:39:50;;;;;;;;;;;18.60;59.90;;;;;;4997649;28;19967;-83
2022/08/20 01:42:36;;;;;;;;;;;18.50;60.10;;;;;;4997939;28;19906;-82
2022/08/20 01:45:04;;;;;;;;;;;18.50;60.10;;;;;;5017889;28;19944;-84
2022/08/20 01:47:31;;;;;;;;;;;18.60;60.60;;;;;;5016424;28;19924;-82
2022/08/20 01:49:59;;;;;;;;;;;18.50;60.30;;;;;;5018761;28;19906;-85
2022/08/20 01:52:30;;;;;;;;;;;18.40;60.10;;;;;;5027946;28;19909;-84
2022/08/20 01:54:56;;;;;;;;;;;18.50;60.40;;;;;;5013136;28;20004;-84
2022/08/20 01:57:25;;;;;;;;;;;18.40;60.10;;;;;;5015058;28;19910;-83
2022/08/20 01:59:51;;;;;;;;;;;18.40;60.10;;;;;;5014991;28;19914;-81
2022/08/20 02:02:17;;;;;;;;;;;18.40;60.20;;;;;;5016741;28;19999;-83
2022/08/20 02:04:42;;;;;;;;;;;18.40;60.20;;;;;;5015265;28;19912;-82
2022/08/20 02:07:13;;;;;;;;;;;18.40;60.10;;;;;;5018523;28;19920;-82
2022/08/20 02:09:39;;;;;;;;;;;18.40;60.00;;;;;;5006188;28;20259;-82
2022/08/20 02:12:06;;;;;;;;;;;18.40;60.00;;;;;;5016702;28;19909;-82
2022/08/20 02:14:32;;;;;;;;;;;18.40;60.10;;;;;;5017036;28;19959;-82
2022/08/20 02:16:59;;;;;;;;;;;18.40;60.00;;;;;;5019702;28;19905;-82
2022/08/20 02:19:29;;;;;;;;;;;18.30;59.90;;;;;;5021471;28;19916;-80
2022/08/20 02:21:57;;;;;;;;;;;18.30;59.90;;;;;;5020558;28;19906;-80
2022/08/20 02:24:23;;;;;;;;;;;18.30;59.90;;;;;;5017082;28;19905;-80
2022/08/20 02:26:49;;;;;;;;;;;18.30;59.90;;;;;;5007857;28;20272;-82
2022/08/20 02:29:15;;;;;;;;;;;18.30;60.00;;;;;;5013050;28;19957;-80
2022/08/20 02:31:43;;;;;;;;;;;18.30;60.10;;;;;;5014302;28;19909;-81
2022/08/20 02:34:09;;;;;;;;;;;18.30;60.00;;;;;;4996127;28;19909;-81
2022/08/20 02:36:36;;;;;;;;;;;18.30;60.00;;;;;;4997370;28;20005;-80
2022/08/20 02:39:06;;;;;;;;;;;18.30;60.90;;;;;;4996808;28;19928;-80
2022/08/20 02:41:32;;;;;;;;;;;18.20;60.20;;;;;;5016539;28;20015;-82
2022/08/20 02:43:57;;;;;;;;;;;18.30;60.40;;;;;;5015921;28;19909;-83
2022/08/20 02:46:23;;;;;;;;;;;18.30;60.40;;;;;;5019118;28;19920;-83
2022/08/20 02:48:48;;;;;;;;;;;18.30;60.20;;;;;;5005507;28;20401;-83
2022/08/20 02:51:14;;;;;;;;;;;18.30;60.30;;;;;;5016340;28;20267;-83
2022/08/20 02:53:41;;;;;;;;;;;18.30;60.30;;;;;;4999463;28;19912;-83
2022/08/20 02:56:07;;;;;;;;;;;18.30;60.30;;;;;;5017913;28;20433;-83
2022/08/20 02:58:34;;;;;;;;;;;18.30;60.10;;;;;;5021329;28;20000;-83
2022/08/20 03:01:00;;;;;;;;;;;18.30;60.30;;;;;;5018635;28;19909;-82
2022/08/20 03:03:26;;;;;;;;;;;18.30;60.60;;;;;;5019386;28;19906;-82
2022/08/20 03:05:53;;;;;;;;;;;18.30;60.70;;;;;;5020597;28;19906;-83
2022/08/20 03:08:19;;;;;;;;;;;18.40;60.60;;;;;;5029597;28;19912;-83
2022/08/20 03:10:46;;;;;;;;;;;18.40;60.60;;;;;;5026475;28;20356;-82
2022/08/20 03:13:12;;;;;;;;;;;18.40;60.60;;;;;;5015460;28;19905;-83
2022/08/20 03:15:43;;;;;;;;;;;18.40;60.60;;;;;;5035766;28;19913;-82
2022/08/20 03:18:09;;;;;;;;;;;18.40;60.60;;;;;;5027918;28;19909;-83
2022/08/20 03:20:35;;;;;;;;;;;18.40;60.50;;;;;;5037335;28;20003;-84
2022/08/20 03:23:00;;;;;;;;;;;18.50;60.50;;;;;;5030171;28;19944;-83
2022/08/20 03:25:26;;;;;;;;;;;18.50;60.60;;;;;;5033141;28;19905;-83
2022/08/20 03:27:52;;;;;;;;;;;18.60;60.40;;;;;;5022685;28;19921;-83
2022/08/20 03:30:18;;;;;;;;;;;18.60;60.40;;;;;;5018769;28;20351;-82
2022/08/20 03:32:44;;;;;;;;;;;18.60;60.30;;;;;;5000862;28;19955;-83
2022/08/20 03:35:11;;;;;;;;;;;18.70;60.40;;;;;;5001297;28;20401;-83
2022/08/20 03:37:37;;;;;;;;;;;18.70;60.40;;;;;;5017962;28;20329;-83
2022/08/20 03:40:04;;;;;;;;;;;18.70;60.30;;;;;;5020690;28;19906;-82
2022/08/20 03:42:30;;;;;;;;;;;18.80;60.40;;;;;;5018658;28;19905;-84
2022/08/20 03:44:56;;;;;;;;;;;18.80;60.50;;;;;;5021451;28;20386;-82
2022/08/20 03:47:22;;;;;;;;;;;18.80;60.60;;;;;;5019414;28;20390;-83
2022/08/20 03:49:48;;;;;;;;;;;18.90;60.70;;;;;;5023279;28;19913;-81
2022/08/20 03:52:15;;;;;;;;;;;18.90;60.50;;;;;;5002426;28;19964;-82
2022/08/20 03:54:41;;;;;;;;;;;18.90;60.60;;;;;;5023436;28;20004;-82
2022/08/20 03:57:12;;;;;;;;;;;18.90;60.40;;;;;;5022410;28;19959;-81
2022/08/20 03:59:37;;;;;;;;;;;19.00;60.40;;;;;;5024667;28;20409;-82
2022/08/20 04:02:04;;;;;;;;;;;19.10;60.40;;;;;;5027169;28;19905;-81
2022/08/20 04:04:29;;;;;;;;;;;19.20;60.30;;;;;;5029744;28;19917;-81
2022/08/20 04:06:55;;;;;;;;;;;19.30;60.00;;;;;;5010215;28;20266;-82
2022/08/20 04:09:20;;;;;;;;;;;19.50;59.90;;;;;;5007342;28;19951;-82
2022/08/20 04:11:46;;;;;;;;;;;19.70;59.40;;;;;;5024659;28;19956;-83
2022/08/20 04:14:12;;;;;;;;;;;19.90;58.60;;;;;;5025093;28;19906;-82
2022/08/20 04:16:39;;;;;;;;;;;19.90;58.30;;;;;;5021054;28;19955;-81
2022/08/20 04:19:06;;;;;;;;;;;19.80;57.80;;;;;;5024636;28;20000;-81
2022/08/20 04:21:32;;;;;;;;;;;19.70;58.10;;;;;;5022410;28;19909;-81
2022/08/20 04:23:58;;;;;;;;;;;19.50;58.20;;;;;;5015130;28;19906;-82
2022/08/20 04:26:24;;;;;;;;;;;19.40;58.40;;;;;;5004820;28;20268;-83
2022/08/20 04:28:51;;;;;;;;;;;19.50;58.30;;;;;;5025652;28;19948;-83
2022/08/20 04:31:17;;;;;;;;;;;19.50;58.30;;;;;;5024018;28;19909;-82
2022/08/20 04:33:43;;;;;;;;;;;19.50;58.00;;;;;;5026082;28;19912;-82
2022/08/20 04:36:08;;;;;;;;;;;19.50;57.80;;;;;;5033131;28;19916;-83
2022/08/20 04:38:34;;;;;;;;;;;19.70;57.80;;;;;;5020488;28;19963;-84
2022/08/20 04:41:00;;;;;;;;;;;19.80;57.50;;;;;;5027358;28;19915;-83
2022/08/20 04:43:32;;;;;;;;;;;19.90;57.10;;;;;;5029804;28;19909;-83
2022/08/20 04:45:59;;;;;;;;;;;19.80;57.30;;;;;;5031752;28;20282;-83
2022/08/20 04:48:26;;;;;;;;;;;19.90;56.90;;;;;;5029282;28;19916;-81
2022/08/20 04:50:52;;;;;;;;;;;20.00;57.10;;;;;;5014583;28;19920;-82
2022/08/20 04:53:19;;;;;;;;;;;20.60;57.50;;;;;;5031529;28;20090;-82
2022/08/20 04:55:45;;;;;;;;;;;21.40;56.40;;;;;;5008088;28;20384;-82
2022/08/20 04:58:12;;;;;;;;;;;22.40;55.30;;;;;;5014627;28;19918;-82
2022/08/20 05:00:38;;;;;;;;;;;23.50;53.60;;;;;;5017332;28;19909;-83
2022/08/20 05:03:05;;;;;;;;;;;24.10;49.90;;;;;;5017993;28;20275;-82
2022/08/20 05:05:33;;;;;;;;;;;24.20;49.20;;;;;;5020362;28;19906;-82
2022/08/20 05:08:00;;;;;;;;;;;24.20;49.10;;;;;;5018792;28;20394;-87
2022/08/20 05:10:26;;;;;;;;;;;23.90;49.30;;;;;;5019809;28;19912;-85
2022/08/20 05:12:51;;;;;;;;;;;23.50;49.60;;;;;;5021646;28;19905;-84
2022/08/20 05:15:17;;;;;;;;;;;23.20;49.80;;;;;;5024800;28;19905;-85
2022/08/20 05:17:43;;;;;;;;;;;22.80;49.80;;;;;;4994420;28;19912;-83
2022/08/20 05:20:15;;;;;;;;;;;22.50;50.40;;;;;;5023874;28;19913;-83
2022/08/20 05:22:40;;;;;;;;;;;22.30;50.70;;;;;;5021739;28;19906;-87
2022/08/20 05:25:06;;;;;;;;;;;22.30;51.00;;;;;;5023845;28;19912;-86
2022/08/20 05:27:32;;;;;;;;;;;22.30;50.90;;;;;;5027814;28;19959;-89
2022/08/20 05:30:06;;;;;;;;;;;21.90;51.10;;;;;;5023782;28;20293;-90
2022/08/20 05:32:34;;;;;;;;;;;21.60;51.80;;;;;;5003846;28;19990;-87
2022/08/20 05:35:00;;;;;;;;;;;21.30;52.20;;;;;;5012848;28;20326;-85
2022/08/20 05:37:25;;;;;;;;;;;21.20;52.60;;;;;;5031434;28;19905;-87
2022/08/20 05:39:51;;;;;;;;;;;21.10;53.10;;;;;;5010723;28;19911;-84
2022/08/20 05:42:17;;;;;;;;;;;21.10;53.10;;;;;;5020841;28;19948;-82
2022/08/20 05:44:45;;;;;;;;;;;21.20;53.80;;;;;;5027215;28;19905;-80
2022/08/20 05:47:11;;;;;;;;;;;21.00;53.00;;;;;;4983831;28;19922;-80
2022/08/20 05:49:37;;;;;;;;;;;20.90;53.40;;;;;;5024190;28;19905;-80
2022/08/20 05:52:04;;;;;;;;;;;20.70;53.60;;;;;;5021661;28;19959;-79
2022/08/20 05:54:30;;;;;;;;;;;20.60;53.90;;;;;;5025224;28;20348;-82
2022/08/20 05:56:56;;;;;;;;;;;20.50;54.30;;;;;;5024401;28;19921;-81
2022/08/20 05:59:23;;;;;;;;;;;20.40;54.30;;;;;;5005861;28;19943;-82
2022/08/20 06:01:48;;;;;;;;;;;20.40;54.30;;;;;;5029848;28;20243;-82
2022/08/20 06:04:23;;;;;;;;;;;20.50;54.40;;;;;;5029398;28;20378;-81
2022/08/20 06:06:53;;;;;;;;;;;20.60;54.10;;;;;;5026372;28;19917;-86
2022/08/20 06:09:20;;;;;;;;;;;20.70;54.00;;;;;;5027827;28;19913;-85
2022/08/20 06:11:46;;;;;;;;;;;20.70;53.70;;;;;;5021191;28;19912;-84
2022/08/20 06:14:12;;;;;;;;;;;20.80;53.70;;;;;;5015704;28;19999;-86
2022/08/20 06:16:38;;;;;;;;;;;20.90;53.30;;;;;;5014015;28;19997;-85
2022/08/20 06:19:04;;;;;;;;;;;21.00;53.10;;;;;;5013570;28;20000;-86
2022/08/20 06:21:29;;;;;;;;;;;21.20;52.90;;;;;;5013862;28;19916;-86
2022/08/20 06:23:55;;;;;;;;;;;21.40;52.80;;;;;;5013003;28;19906;-84
2022/08/20 06:26:22;;;;;;;;;;;21.50;53.10;;;;;;5030093;28;19913;-87
2022/08/20 06:28:48;;;;;;;;;;;21.50;51.90;;;;;;5032873;28;19912;-83
2022/08/20 06:31:13;;;;;;;;;;;21.40;51.70;;;;;;5032966;28;19905;-84
2022/08/20 06:33:39;;;;;;;;;;;21.30;51.50;;;;;;5034860;28;20285;-85
2022/08/20 06:36:05;;;;;;;;;;;21.40;51.80;;;;;;5033532;28;19988;-82
2022/08/20 06:38:31;;;;;;;;;;;21.60;51.70;;;;;;5032249;28;20366;-83
2022/08/20 06:40:58;;;;;;;;;;;21.80;51.30;;;;;;5034312;28;19912;-82
2022/08/20 06:43:24;;;;;;;;;;;21.70;51.30;;;;;;5038909;28;19909;-84
2022/08/20 06:45:50;;;;;;;;;;;21.80;51.30;;;;;;5024128;28;20346;-85
2022/08/20 06:48:16;;;;;;;;;;;21.90;50.90;;;;;;5052567;28;20020;-86
2022/08/20 06:50:48;;;;;;;;;;;22.00;50.50;;;;;;5027147;28;19905;-88
2022/08/20 06:53:19;;;;;;;;;;;22.00;49.80;;;;;;5042456;28;19962;-87
2022/08/20 06:55:47;;;;;;;;;;;22.00;49.60;;;;;;5039966;28;19909;-82
2022/08/20 06:58:13;;;;;;;;;;;22.20;49.60;;;;;;5023095;28;20371;-82
2022/08/20 07:00:41;;;;;;;;;;;22.30;49.30;;;;;;5039441;28;19916;-83
2022/08/20 07:03:06;;;;;;;;;;;22.60;48.20;;;;;;5022311;28;19916;-83
2022/08/20 07:05:33;;;;;;;;;;;23.00;47.90;;;;;;5031105;28;19905;-85
2022/08/20 07:07:59;;;;;;;;;;;23.90;46.30;;;;;;5039777;28;19913;-86
2022/08/20 07:10:25;;;;;;;;;;;25.40;44.40;;;;;;5019656;28;19916;-87
2022/08/20 07:12:51;;;;;;;;;;;25.90;42.70;;;;;;5022196;28;19953;-84
2022/08/20 07:15:18;;;;;;;;;;;25.80;42.80;;;;;;5039000;28;19905;-85
2022/08/20 07:17:51;;;;;;;;;;;26.10;42.30;;;;;;5021743;28;19905;-83
2022/08/20 07:20:16;;;;;;;;;;;27.30;41.70;;;;;;5039537;28;19931;-86
2022/08/20 07:22:42;;;;;;;;;;;28.30;41.40;;;;;;5028141;28;19904;-84
2022/08/20 07:25:10;;;;;;;;;;;28.70;39.00;;;;;;5039076;28;19909;-86
2022/08/20 07:27:36;;;;;;;;;;;28.30;38.90;;;;;;5039270;28;19917;-84
2022/08/20 07:32:46;;;;;;;;;;;27.30;41.00;;;;;;5032074;28;20382;-92
2022/08/20 07:35:14;;;;;;;;;;;26.60;40.70;;;;;;5008137;28;19905;-89
2022/08/20 07:37:41;;;;;;;;;;;26.20;41.00;;;;;;5005528;28;19964;-90
2022/08/20 07:40:10;;;;;;;;;;;25.70;40.90;;;;;;5012946;28;19952;-92
2022/08/20 07:42:38;;;;;;;;;;;25.30;41.30;;;;;;5017951;28;19914;-87
2022/08/20 07:45:09;;;;;;;;;;;24.90;41.60;;;;;;5019073;28;19912;-85
2022/08/20 07:47:40;;;;;;;;;;;24.30;42.50;;;;;;5003549;28;19983;-88
2022/08/20 07:50:07;;;;;;;;;;;24.00;43.00;;;;;;5029042;28;19969;-87
2022/08/20 07:52:34;;;;;;;;;;;23.80;43.50;;;;;;5037052;28;19932;-84
2022/08/20 07:55:01;;;;;;;;;;;23.90;43.60;;;;;;5030465;28;19909;-85
2022/08/20 07:57:27;;;;;;;;;;;24.00;43.50;;;;;;5022073;28;19982;-87
2022/08/20 07:59:52;;;;;;;;;;;24.00;44.50;;;;;;5018621;28;19964;-88
2022/08/20 08:02:18;;;;;;;;;;;23.60;44.80;;;;;;5033124;28;19914;-84
2022/08/20 08:04:44;;;;;;;;;;;23.20;45.20;;;;;;5010794;28;19953;-88
2022/08/20 08:07:09;;;;;;;;;;;22.90;45.50;;;;;;5022533;28;19921;-82
2022/08/20 08:09:36;;;;;;;;;;;22.70;45.70;;;;;;5027109;28;19905;-84
2022/08/20 08:12:02;;;;;;;;;;;22.60;46.10;;;;;;5028754;28;19932;-90
2022/08/20 08:14:30;;;;;;;;;;;22.50;46.30;;;;;;5016746;28;19940;-90
2022/08/20 08:16:57;;;;;;;;;;;22.40;46.40;;;;;;5015949;28;19909;-91
2022/08/20 08:19:23;;;;;;;;;;;22.30;46.40;;;;;;5008053;28;19894;-89
2022/08/20 08:21:49;;;;;;;;;;;22.30;46.50;;;;;;5007231;28;20016;-89
2022/08/20 08:24:16;;;;;;;;;;;22.60;46.70;;;;;;5020401;28;19948;-86
2022/08/20 08:26:42;;;;;;;;;;;22.90;46.30;;;;;;5031757;28;19913;-87
2022/08/20 08:29:08;;;;;;;;;;;23.10;45.70;;;;;;5038652;28;20283;-86
2022/08/20 08:31:34;;;;;;;;;;;23.30;45.30;;;;;;5036632;28;19905;-84
2022/08/20 08:33:59;;;;;;;;;;;23.30;44.90;;;;;;5036347;28;19908;-84
2022/08/20 08:36:25;;;;;;;;;;;23.30;44.90;;;;;;5039052;28;19999;-85
2022/08/20 08:38:53;;;;;;;;;;;23.40;44.90;;;;;;5028806;28;19913;-84
2022/08/20 08:41:48;;;;;;;;;;;23.40;44.90;;;;;;5029389;28;19995;-80
2022/08/20 08:44:22;;;;;;;;;;;23.40;45.00;;;;;;5029306;28;19928;-82
2022/08/20 08:46:50;;;;;;;;;;;23.30;44.90;;;;;;5031040;28;19918;-83
2022/08/20 08:49:18;;;;;;;;;;;23.30;45.20;;;;;;5015088;28;20004;-82
2022/08/20 08:51:47;;;;;;;;;;;23.20;45.10;;;;;;5030804;28;19905;-82
2022/08/20 08:54:15;;;;;;;;;;;23.20;45.30;;;;;;5035686;28;20250;-85
2022/08/20 08:56:45;;;;;;;;;;;23.20;45.40;;;;;;5018970;28;20007;-94
2022/08/20 08:59:18;;;;;;;;;;;23.20;45.40;;;;;;5015236;28;19977;-89
2022/08/20 09:01:49;;;;;;;;;;;23.10;45.10;;;;;;5019169;28;19906;-89
2022/08/20 09:04:15;;;;;;;;;;;22.90;44.90;;;;;;5030362;28;19932;-90
2022/08/20 09:06:42;;;;;;;;;;;22.90;45.10;;;;;;5012835;28;19913;-88
2022/08/20 09:09:16;;;;;;;;;;;22.80;45.10;;;;;;5032209;28;19905;-87
2022/08/20 09:11:47;;;;;;;;;;;22.80;45.10;;;;;;5016893;28;19909;-83
2022/08/20 09:14:12;;;;;;;;;;;22.80;45.10;;;;;;5014716;28;19916;-85
2022/08/20 09:16:38;;;;;;;;;;;22.70;45.20;;;;;;5008645;28;20374;-87
2022/08/20 09:19:04;;;;;;;;;;;22.70;45.40;;;;;;5014534;28;19905;-85
2022/08/20 09:21:29;;;;;;;;;;;22.60;45.70;;;;;;5004551;28;19919;-82
2022/08/20 09:23:55;;;;;;;;;;;22.50;46.00;;;;;;5031948;28;19909;-83
2022/08/20 09:26:21;;;;;;;;;;;22.40;46.60;;;;;;5024851;28;19924;-84
2022/08/20 09:28:46;;;;;;;;;;;22.40;46.80;;;;;;5009522;28;19905;-84
2022/08/20 09:31:12;;;;;;;;;;;22.40;47.20;;;;;;5016519;28;19912;-82
2022/08/20 09:33:38;;;;;;;;;;;22.40;47.60;;;;;;5022436;28;19912;-86
2022/08/20 09:36:03;;;;;;;;;;;22.40;48.00;;;;;;5009353;28;19911;-88
2022/08/20 09:38:29;;;;;;;;;;;22.30;48.30;;;;;;5020290;28;20351;-86
2022/08/20 09:40:55;;;;;;;;;;;22.10;48.40;;;;;;5015383;28;19909;-86
2022/08/20 09:43:21;;;;;;;;;;;21.80;49.50;;;;;;4996825;28;19953;-87
2022/08/20 09:45:46;;;;;;;;;;;21.40;50.10;;;;;;5014949;28;19905;-85
2022/08/20 09:48:12;;;;;;;;;;;21.10;50.80;;;;;;5014506;28;20012;-87
2022/08/20 09:50:41;;;;;;;;;;;21.00;51.40;;;;;;4998916;28;19909;-87
2022/08/20 09:53:08;;;;;;;;;;;21.00;51.50;;;;;;5013811;28;20371;-87
2022/08/20 09:55:35;;;;;;;;;;;20.90;52.20;;;;;;5014888;28;19906;-86
2022/08/20 09:58:21;;;;;;;;;;;20.70;53.60;;;;;;5024598;28;19939;-88
2022/08/20 10:00:47;;;;;;;;;;;20.70;53.60;;;;;;5015937;28;19905;-87
2022/08/20 10:03:12;;;;;;;;;;;20.70;53.30;;;;;;4998087;28;20430;-86
2022/08/20 10:05:38;;;;;;;;;;;20.70;53.80;;;;;;4998097;28;20290;-86
2022/08/20 10:08:05;;;;;;;;;;;20.70;53.80;;;;;;5020612;28;19920;-84
2022/08/20 10:10:31;;;;;;;;;;;20.60;54.70;;;;;;5018774;28;19905;-88
2022/08/20 10:12:56;;;;;;;;;;;20.30;55.30;;;;;;4999945;28;19974;-85
2022/08/20 10:15:22;;;;;;;;;;;20.10;56.20;;;;;;5015793;28;19905;-86
2022/08/20 10:17:47;;;;;;;;;;;19.90;56.30;;;;;;5028024;28;19909;-87
2022/08/20 10:20:14;;;;;;;;;;;19.80;56.20;;;;;;5025835;28;20287;-89
2022/08/20 10:22:40;;;;;;;;;;;19.70;57.10;;;;;;5015692;28;19916;-87
2022/08/20 10:25:05;;;;;;;;;;;19.60;58.60;;;;;;5003023;28;19905;-87
2022/08/20 10:27:31;;;;;;;;;;;19.50;58.20;;;;;;5035105;28;19913;-89
2022/08/20 10:29:57;;;;;;;;;;;19.50;57.80;;;;;;5016819;28;19951;-89
2022/08/20 10:32:23;;;;;;;;;;;19.60;57.90;;;;;;5017171;28;19906;-88
2022/08/20 10:34:48;;;;;;;;;;;19.70;57.80;;;;;;5031806;28;19956;-87
2022/08/20 10:37:15;;;;;;;;;;;19.80;57.80;;;;;;5025660;28;19909;-87
2022/08/20 10:39:41;;;;;;;;;;;19.70;57.50;;;;;;5028606;28;19909;-86
2022/08/20 10:42:06;;;;;;;;;;;19.60;57.80;;;;;;5022161;28;19916;-87
2022/08/20 10:44:34;;;;;;;;;;;19.50;58.30;;;;;;5037080;28;19985;-90
2022/08/20 10:47:19;;;;;;;;;;;19.40;59.20;;;;;;5037621;28;19913;-87
2022/08/20 10:49:45;;;;;;;;;;;19.40;59.10;;;;;;5048103;28;19952;-87
2022/08/20 10:52:11;;;;;;;;;;;19.40;58.70;;;;;;5050164;28;19905;-86
2022/08/20 10:54:40;;;;;;;;;;;19.50;58.60;;;;;;5040485;28;19906;-88
2022/08/20 10:57:15;;;;;;;;;;;19.50;58.60;;;;;;5017484;28;19912;-88
2022/08/20 10:59:42;;;;;;;;;;;19.70;58.50;;;;;;5032038;28;20004;-88
2022/08/20 11:02:08;;;;;;;;;;;20.00;57.90;;;;;;5030197;28;19914;-88
2022/08/20 11:04:34;;;;;;;;;;;20.10;57.30;;;;;;5006161;28;20012;-88
2022/08/20 11:07:09;;;;;;;;;;;20.10;57.20;;;;;;5033471;28;20369;-89
2022/08/20 11:09:34;;;;;;;;;;;20.00;57.30;;;;;;5033376;28;19948;-87
2022/08/20 11:12:00;;;;;;;;;;;20.10;57.80;;;;;;5029339;28;19912;-86
2022/08/20 11:14:25;;;;;;;;;;;20.20;57.20;;;;;;5033714;28;19905;-88
2022/08/20 11:16:51;;;;;;;;;;;20.40;57.20;;;;;;5022686;28;19959;-88
2022/08/20 11:19:17;;;;;;;;;;;20.70;56.70;;;;;;5001254;28;19913;-87
2022/08/20 11:21:42;;;;;;;;;;;20.70;55.80;;;;;;5013900;28;19905;-86
2022/08/20 11:24:08;;;;;;;;;;;20.90;55.90;;;;;;5010121;28;20039;-88
2022/08/20 11:26:34;;;;;;;;;;;21.10;55.80;;;;;;5019988;28;19913;-87
2022/08/20 11:28:59;;;;;;;;;;;21.30;55.70;;;;;;5036439;28;20383;-86
2022/08/20 11:31:25;;;;;;;;;;;21.40;54.60;;;;;;5034536;28;19997;-87
2022/08/20 11:33:51;;;;;;;;;;;21.30;54.20;;;;;;4999145;28;19949;-86
2022/08/20 11:36:16;;;;;;;;;;;21.30;54.00;;;;;;5033613;28;19909;-88
2022/08/20 11:38:42;;;;;;;;;;;21.40;53.90;;;;;;5031329;28;19956;-87
2022/08/20 11:41:07;;;;;;;;;;;21.50;53.90;;;;;;5033848;28;19919;-89
2022/08/20 11:43:33;;;;;;;;;;;21.50;53.20;;;;;;5023166;28;19963;-87
2022/08/20 11:45:59;;;;;;;;;;;21.40;52.60;;;;;;5019718;28;20027;-87
2022/08/20 11:48:24;;;;;;;;;;;21.40;52.80;;;;;;5037372;28;19913;-86
2022/08/20 11:50:50;;;;;;;;;;;21.40;53.00;;;;;;5003268;28;19910;-86
2022/08/20 11:53:16;;;;;;;;;;;21.50;52.80;;;;;;5034822;28;19925;-86
2022/08/20 11:55:42;;;;;;;;;;;21.50;52.40;;;;;;5041060;28;19909;-87
2022/08/20 11:58:08;;;;;;;;;;;21.50;52.40;;;;;;5022293;28;19917;-86
2022/08/20 12:00:35;;;;;;;;;;;21.40;52.00;;;;;;5052165;28;19905;-86
2022/08/20 12:03:03;;;;;;;;;;;21.40;52.30;;;;;;5027143;28;19929;-87
2022/08/20 12:05:29;;;;;;;;;;;21.40;52.50;;;;;;5003657;28;19913;-86
2022/08/20 12:07:55;;;;;;;;;;;21.50;52.20;;;;;;5001482;28;19925;-86
2022/08/20 12:10:21;;;;;;;;;;;21.40;52.40;;;;;;5027594;28;19909;-84
2022/08/20 12:12:47;;;;;;;;;;;21.50;52.40;;;;;;5011679;28;19905;-83
2022/08/20 12:15:13;;;;;;;;;;;21.50;52.10;;;;;;5002990;28;19912;-85
2022/08/20 12:17:38;;;;;;;;;;;21.50;51.60;;;;;;5025375;28;19916;-88
2022/08/20 12:20:08;;;;;;;;;;;21.50;50.90;;;;;;5035278;28;20353;-88
2022/08/20 12:22:34;;;;;;;;;;;21.50;50.60;;;;;;5018835;28;19909;-83
2022/08/20 12:25:00;;;;;;;;;;;21.50;50.70;;;;;;5008037;28;19916;-83
2022/08/20 12:27:26;;;;;;;;;;;21.60;50.50;;;;;;5027932;28;19928;-83
2022/08/20 12:29:55;;;;;;;;;;;21.70;50.30;;;;;;5009265;28;19929;-84
2022/08/20 12:32:21;;;;;;;;;;;21.80;49.70;;;;;;5007200;28;19913;-84
2022/08/20 12:34:47;;;;;;;;;;;21.90;49.70;;;;;;5019284;28;20259;-83
2022/08/20 12:37:14;;;;;;;;;;;21.90;49.40;;;;;;5001970;28;19913;-85
2022/08/20 12:39:41;;;;;;;;;;;22.00;49.00;;;;;;5017906;28;19913;-86
2022/08/20 12:42:07;;;;;;;;;;;22.00;48.60;;;;;;5033606;28;19913;-84
2022/08/20 12:44:34;;;;;;;;;;;22.00;48.30;;;;;;5034856;28;19966;-86
2022/08/20 12:47:11;;;;;;;;;;;22.00;48.20;;;;;;5027268;28;19924;-84
2022/08/20 12:49:37;;;;;;;;;;;22.00;48.40;;;;;;5023437;28;20322;-84
2022/08/20 12:52:03;;;;;;;;;;;22.10;48.40;;;;;;5022385;28;19905;-85
2022/08/20 12:54:29;;;;;;;;;;;22.20;48.30;;;;;;5011491;28;20000;-84
2022/08/20 12:56:55;;;;;;;;;;;22.20;47.80;;;;;;5023681;28;19909;-85
2022/08/20 12:59:21;;;;;;;;;;;22.30;48.00;;;;;;5028518;28;19949;-87
2022/08/20 13:01:47;;;;;;;;;;;22.40;47.60;;;;;;5033707;28;19940;-85
2022/08/20 13:04:13;;;;;;;;;;;22.40;46.50;;;;;;5009944;28;19964;-85
2022/08/20 13:06:38;;;;;;;;;;;22.30;46.50;;;;;;5028355;28;19920;-87
2022/08/20 13:09:04;;;;;;;;;;;22.20;46.20;;;;;;5029284;28;19912;-86
2022/08/20 13:11:30;;;;;;;;;;;22.10;46.50;;;;;;5009675;28;19999;-88
2022/08/20 13:13:55;;;;;;;;;;;22.20;46.70;;;;;;5005611;28;19941;-84
2022/08/20 13:16:21;;;;;;;;;;;22.30;46.20;;;;;;5026260;28;19912;-85
2022/08/20 13:18:46;;;;;;;;;;;22.30;46.30;;;;;;5022101;28;19909;-84
2022/08/20 13:21:12;;;;;;;;;;;22.30;46.30;;;;;;5022749;28;19911;-84
2022/08/20 13:23:38;;;;;;;;;;;22.40;46.30;;;;;;5027403;28;19971;-85
2022/08/20 13:26:04;;;;;;;;;;;22.40;46.20;;;;;;5032005;28;20359;-85
2022/08/20 13:28:30;;;;;;;;;;;22.40;46.30;;;;;;5017592;28;19919;-87
2022/08/20 13:30:56;;;;;;;;;;;22.50;46.20;;;;;;5023152;28;20472;-85
2022/08/20 13:33:21;;;;;;;;;;;22.50;46.40;;;;;;5014711;28;19953;-85
2022/08/20 13:35:47;;;;;;;;;;;22.50;46.60;;;;;;4996723;28;20279;-83
2022/08/20 13:38:13;;;;;;;;;;;22.60;46.40;;;;;;4997563;28;20331;-82
2022/08/20 13:40:38;;;;;;;;;;;22.60;46.50;;;;;;5014479;28;20000;-85
2022/08/20 13:43:04;;;;;;;;;;;22.60;46.40;;;;;;5009394;28;19909;-82
2022/08/20 13:45:30;;;;;;;;;;;22.60;46.70;;;;;;5013750;28;20281;-86
2022/08/20 13:47:55;;;;;;;;;;;22.50;46.80;;;;;;5013230;28;20324;-80
2022/08/20 13:50:22;;;;;;;;;;;22.40;46.90;;;;;;5012245;28;19906;-84
2022/08/20 13:52:48;;;;;;;;;;;22.30;47.10;;;;;;5016550;28;20406;-84
2022/08/20 13:55:15;;;;;;;;;;;22.30;47.30;;;;;;5014831;28;20015;-81
2022/08/20 13:57:42;;;;;;;;;;;22.30;47.50;;;;;;4999110;28;19999;-80
2022/08/20 14:00:11;;;;;;;;;;;22.30;47.70;;;;;;5018348;28;19906;-86
2022/08/20 14:02:38;;;;;;;;;;;22.20;47.70;;;;;;5014741;28;19905;-84
2022/08/20 14:05:04;;;;;;;;;;;22.20;47.90;;;;;;4997479;28;19932;-84
2022/08/20 14:07:30;;;;;;;;;;;22.20;48.10;;;;;;5013417;28;19913;-87
2022/08/20 14:09:57;;;;;;;;;;;22.10;48.20;;;;;;5014376;28;19920;-83
2022/08/20 14:12:23;;;;;;;;;;;22.10;48.40;;;;;;4996688;28;19905;-84
2022/08/20 14:14:50;;;;;;;;;;;22.00;48.40;;;;;;4996267;28;20045;-86
2022/08/20 14:17:20;;;;;;;;;;;22.10;48.60;;;;;;5020985;28;19913;-87
2022/08/20 14:19:47;;;;;;;;;;;22.00;48.70;;;;;;4996310;28;19905;-85